Latest Weather Observations for Weipa

IDQ60801

Issued at 6:02 pm EST Tuesday 28 July 2015 (issued every 30 minutes, with the page automatically refreshed every 10 minutes)

About weather observations | Map of weather stations | Latest weather observations for QLD | Other Formats
Station Details ID: 027045 Name: WEIPA AERO Lat: -12.68 Lon: 141.92 Height: 17.96 m
Data from the previous 72 hours. | See also: Recent months at Weipa
Date/Time
EST
Temp
°C
App
Temp
°C
Dew
Point
Rel
Hum
%
Delta-T
°C
Wind Press
QNH
hPa
Press
MSL
hPa
Rain
since 9 am
mm
Dir
 
Spd
km/h
Gust
km/h
Spd
kts
Gust
kts
28/06:00pm 28.5 26.4 16.2 47 7.6 ESE 22 33 12 18 1015.2 1015.1 0.0
28/05:30pm 29.0 27.2 15.5 44 8.3 E 19 33 10 18 1014.9 - 0.0
28/05:00pm 29.7 26.4 14.9 40 9.0 E 26 39 14 21 1014.5 - 0.0
28/04:30pm 30.2 26.9 15.0 39 9.3 E 26 37 14 20 1014.1 - 0.0
28/04:00pm 30.7 26.4 14.4 37 9.9 ESE 30 43 16 23 1013.9 - 0.0
28/03:30pm 30.2 27.7 16.1 42 8.8 E 24 35 13 19 1014.0 - 0.0
28/03:00pm 30.7 27.2 15.6 40 9.3 E 28 46 15 25 1013.9 1013.8 0.0
28/02:30pm 30.1 28.0 16.2 43 8.7 ENE 22 30 12 16 1014.1 - 0.0
28/02:06pm 29.8 26.6 16.4 44 8.4 ESE 28 52 15 28 1014.5 - 0.0
28/02:00pm 29.5 26.8 16.6 45 8.1 ESE 26 35 14 19 1014.6 - 0.0
28/01:30pm 29.8 27.1 16.7 45 8.2 ESE 26 44 14 24 1015.1 - 0.0
28/01:00pm 28.3 24.9 16.8 49 7.2 ESE 30 41 16 22 1015.7 - 0.0
28/12:30pm 29.4 26.3 17.6 49 7.5 ESE 30 41 16 22 1016.0 - 0.0
28/12:00pm 28.8 26.7 17.1 49 7.3 ESE 24 35 13 19 1016.2 1016.1 0.0
28/11:30am 28.8 26.8 17.3 49 7.3 ESE 24 41 13 22 1016.7 - 0.0
28/11:00am 27.8 25.3 18.1 55 6.2 ESE 28 39 15 21 1017.0 - 0.0
28/10:30am 27.4 25.1 18.4 58 5.7 ESE 28 37 15 20 1017.2 - 0.0
28/10:17am 26.5 23.8 18.4 61 5.2 ESE 30 48 16 26 1017.3 - 0.0
28/10:00am 26.9 24.1 18.3 59 5.5 ESE 30 44 16 24 1017.3 - 0.0
28/09:55am 26.5 24.1 18.2 60 5.3 ESE 28 50 15 27 1017.3 - 0.0
28/09:30am 25.8 24.4 18.8 65 4.5 ESE 24 41 13 22 1017.4 - 0.0
28/09:00am 24.6 24.2 18.8 70 3.7 SE 19 26 10 14 1017.1 1017.0 0.0
28/08:30am 23.6 24.0 18.9 75 3.0 ESE 15 20 8 11 1016.9 - 0.0
28/08:00am 22.1 23.6 19.0 82 2.0 ESE 9 15 5 8 1016.8 - 0.0
28/07:30am 20.6 22.7 18.9 90 1.1 ESE 6 7 3 4 1016.8 - 0.0
28/07:00am 19.4 21.6 18.3 93 0.7 E 4 6 2 3 1016.7 - 0.0
28/06:30am 19.7 21.6 18.6 93 0.7 E 6 7 3 4 1016.6 - 0.0
28/06:00am 19.6 21.6 18.7 94 0.6 SSE 6 7 3 4 1016.4 1016.3 0.0
28/05:30am 19.1 20.9 18.3 95 0.5 S 6 9 3 5 1016.2 - 0.0
28/05:00am 19.7 22.4 18.7 94 0.6 SSE 2 4 1 2 1016.0 - 0.0
28/04:30am 20.2 22.6 18.8 92 0.9 SSE 4 4 2 2 1016.0 - 0.0
28/04:00am 20.7 23.1 18.9 89 1.1 SE 4 6 2 3 1016.0 - 0.0
28/03:30am 21.0 23.1 18.9 88 1.3 SE 6 9 3 5 1016.0 - 0.0
28/03:00am 21.5 23.6 18.9 85 1.6 ESE 6 9 3 5 1016.5 1016.4 0.0
28/02:30am 22.0 23.5 18.9 82 2.0 ESE 9 17 5 9 1016.5 - 0.0
28/02:00am 22.4 23.9 18.9 80 2.2 E 9 15 5 8 1016.4 - 0.0
28/01:30am 22.5 23.5 18.7 79 2.4 E 11 19 6 10 1016.7 - 0.0
28/01:00am 22.6 23.2 18.6 78 2.5 E 13 19 7 10 1017.1 - 0.0
28/12:30am 22.9 23.1 18.5 76 2.8 ESE 15 20 8 11 1017.4 - 0.0
28/12:00am 23.1 23.7 18.5 75 2.9 ESE 13 20 7 11 1017.5 1017.4 0.0
 
Date/Time
EST
Temp
°C
App
Temp
°C
Dew
Point
Rel
Hum
%
Delta-T
°C
Wind Press
QNH
hPa
Press
MSL
hPa
Rain
since 9 am
mm
Dir
 
Spd
km/h
Gust
km/h
Spd
kts
Gust
kts
27/11:30pm 23.5 23.2 18.3 72 3.3 ESE 17 26 9 14 1017.6 - 0.0
27/11:00pm 23.7 22.9 18.1 71 3.5 ESE 19 24 10 13 1017.9 - 0.0
27/10:30pm 24.0 23.4 17.6 67 4.0 ESE 17 20 9 11 1017.9 - 0.0
27/10:00pm 24.3 24.0 17.3 65 4.3 ESE 15 19 8 10 1018.0 - 0.0
27/09:30pm 24.7 24.6 17.0 62 4.8 ESE 13 17 7 9 1018.1 - 0.0
27/09:00pm 25.1 25.7 16.9 60 5.1 ESE 9 15 5 8 1017.9 1017.8 0.0
27/08:30pm 25.8 25.6 16.7 57 5.6 ESE 13 20 7 11 1017.6 - 0.0
27/08:00pm 26.5 25.0 16.4 53 6.2 ESE 19 24 10 13 1017.2 - 0.0
27/07:30pm 27.2 26.1 16.3 51 6.7 ESE 17 24 9 13 1016.6 - 0.0
27/07:00pm 27.4 27.0 15.2 47 7.4 ESE 11 15 6 8 1016.1 - 0.0
27/06:30pm 28.1 27.5 14.5 43 8.2 E 11 20 6 11 1015.6 - 0.0
27/06:00pm 29.2 26.6 13.7 38 9.3 ESE 20 30 11 16 1015.2 1015.1 0.0
27/05:30pm 30.1 27.6 14.1 37 9.7 ESE 20 32 11 17 1014.7 - 0.0
27/05:00pm 31.0 27.2 13.5 34 10.5 ESE 26 37 14 20 1014.3 - 0.0
27/04:30pm 31.5 29.0 14.2 35 10.5 ESE 20 30 11 16 1013.9 - 0.0
27/04:00pm 31.9 28.8 13.5 32 11.1 E 22 30 12 16 1013.7 - 0.0
27/03:30pm 32.3 28.9 13.6 32 11.3 ESE 24 35 13 19 1013.5 - 0.0
27/03:00pm 32.7 29.1 12.9 30 11.9 ESE 24 39 13 21 1013.5 1013.4 0.0
27/02:30pm 32.7 29.2 12.3 28 12.1 SE 22 35 12 19 1013.7 - 0.0
27/02:00pm 32.6 29.3 12.7 29 11.9 ESE 22 39 12 21 1014.2 - 0.0
27/01:30pm 31.4 28.5 14.1 35 10.5 ESE 22 37 12 20 1014.7 - 0.0
27/01:00pm 31.8 28.5 14.1 34 10.8 ESE 24 33 13 18 1015.1 - 0.0
27/12:30pm 31.2 27.6 15.2 38 9.9 ESE 28 39 15 21 1015.6 - 0.0
27/12:00pm 30.8 27.7 15.6 39 9.4 E 26 37 14 20 1016.1 1016.0 0.0
27/11:30am 30.0 28.2 17.0 45 8.2 ESE 22 33 12 18 1016.5 - 0.0
27/11:00am 29.6 27.3 17.5 48 7.7 ESE 26 41 14 22 1017.0 - 0.0
27/10:30am 28.0 26.8 18.5 56 6.1 E 22 35 12 19 1017.5 - 0.0
27/10:00am 27.6 26.1 18.5 57 5.8 ESE 24 33 13 18 1017.8 - 0.0
27/09:30am 27.1 25.3 18.8 60 5.3 ESE 26 35 14 19 1018.0 - 0.0
27/09:00am 25.4 24.9 19.2 68 4.0 ESE 20 30 11 16 1018.0 1017.9 0.0
27/08:30am 24.6 24.7 19.2 72 3.5 ESE 17 24 9 13 1018.0 - 0.0
27/08:00am 23.8 24.0 19.3 76 2.9 SE 17 20 9 11 1017.7 - 0.0
27/07:30am 22.9 23.0 19.2 79 2.4 ESE 17 26 9 14 1017.2 - 0.0
27/07:00am 22.2 23.2 19.5 85 1.7 E 13 19 7 10 1016.8 - 0.0
27/06:30am 22.2 23.4 19.9 87 1.5 ESE 13 17 7 9 1016.7 - 0.0
27/06:00am 22.5 23.8 20.1 86 1.5 ESE 13 17 7 9 1016.8 1016.7 0.0
27/05:30am 22.7 23.3 20.3 86 1.6 ESE 17 26 9 14 1016.5 - 0.0
27/05:00am 22.8 24.3 20.5 87 1.5 ESE 13 19 7 10 1016.5 - 0.0
27/04:30am 23.1 23.8 20.5 85 1.7 SE 17 26 9 14 1016.4 - 0.0
27/04:00am 23.2 24.3 20.5 85 1.8 SE 15 22 8 12 1016.4 - 0.0
27/03:30am 23.5 24.1 20.3 82 2.1 SE 17 24 9 13 1016.5 - 0.0
27/03:00am 23.7 24.1 19.8 79 2.5 SE 17 22 9 12 1016.6 1016.5 0.0
27/02:30am 23.3 23.6 19.7 80 2.3 ESE 17 20 9 11 1016.7 - 0.0
27/02:00am 22.8 23.5 19.6 82 2.0 SE 15 19 8 10 1016.9 - 0.0
27/01:30am 23.0 24.8 19.6 81 2.2 ESE 9 15 5 8 1017.0 - 0.0
27/01:00am 23.2 24.6 19.6 80 2.3 ESE 11 15 6 8 1017.2 - 0.0
27/12:30am 23.2 24.9 19.4 79 2.4 E 9 13 5 7 1017.6 - 0.0
27/12:00am 23.6 24.9 19.4 77 2.7 ESE 11 15 6 8 1017.8 1017.7 0.0
 
Date/Time
EST
Temp
°C
App
Temp
°C
Dew
Point
Rel
Hum
%
Delta-T
°C
Wind Press
QNH
hPa
Press
MSL
hPa
Rain
since 9 am
mm
Dir
 
Spd
km/h
Gust
km/h
Spd
kts
Gust
kts
26/11:30pm 24.0 24.9 19.3 75 3.0 SE 13 19 7 10 1018.1 - 0.0
26/11:00pm 24.3 24.4 19.2 73 3.3 ESE 17 24 9 13 1018.3 - 0.0
26/10:30pm 24.1 25.3 19.1 73 3.2 ESE 11 13 6 7 1018.4 - 0.0
26/10:00pm 24.6 26.1 18.9 70 3.6 ESE 9 13 5 7 1018.3 - 0.0
26/09:30pm 25.0 26.4 18.7 68 4.0 ESE 9 13 5 7 1018.3 - 0.0
26/09:00pm 25.7 26.3 18.5 64 4.6 ESE 13 19 7 10 1017.9 1017.8 0.0
26/08:30pm 25.9 27.2 18.4 63 4.8 E 9 13 5 7 1017.4 - 0.0
26/08:00pm 26.5 27.7 18.3 60 5.2 E 9 13 5 7 1017.0 - 0.0
26/07:30pm 27.0 28.5 18.1 58 5.6 E 7 11 4 6 1016.4 - 0.0
26/07:00pm 27.9 28.0 17.5 53 6.6 E 13 19 7 10 1016.1 - 0.0
26/06:30pm 27.9 28.0 17.4 52 6.6 E 13 17 7 9 1015.7 - 0.0
26/06:00pm 29.0 27.7 16.9 48 7.6 E 19 30 10 16 1015.2 1015.1 0.0
26/05:30pm 29.9 28.4 16.8 45 8.2 ESE 20 32 11 17 1014.9 - 0.0
26/05:00pm 30.6 29.4 17.1 44 8.5 ESE 19 26 10 14 1014.5 - 0.0
26/04:30pm 29.8 27.0 17.2 46 8.0 ESE 28 37 15 20 1014.4 - 0.0
26/04:00pm 30.9 28.2 15.6 39 9.5 E 24 33 13 18 1014.0 - 0.0
26/03:30pm 31.4 29.8 16.5 40 9.4 ESE 20 32 11 17 1013.9 - 0.0
26/03:00pm 31.2 28.7 16.1 40 9.4 E 24 39 13 21 1013.7 1013.6 0.0
26/02:30pm 31.3 29.0 16.7 41 9.2 ESE 24 37 13 20 1013.7 - 0.0
26/02:00pm 31.1 29.1 17.3 43 8.8 ESE 24 37 13 20 1013.9 - 0.0
26/01:30pm 31.5 29.1 17.3 42 9.0 ESE 26 39 14 21 1014.2 - 0.0
26/01:00pm 30.7 28.7 17.4 45 8.5 ESE 24 32 13 17 1014.5 - 0.0
26/12:30pm 31.5 29.4 17.2 42 9.1 ESE 24 35 13 19 1014.7 - 0.0
26/12:00pm 30.6 29.4 18.3 47 7.9 E 22 35 12 19 1015.3 1015.2 0.0
26/11:30am 29.1 27.7 18.7 53 6.7 E 24 39 13 21 1016.0 - 0.0
26/11:00am 28.8 27.4 18.9 55 6.4 E 24 35 13 19 1016.4 - 0.0
26/10:30am 28.5 25.8 18.5 54 6.4 E 30 43 16 23 1016.4 - 0.0
26/10:00am 27.5 26.0 19.5 61 5.2 ESE 26 37 14 20 1016.6 - 0.0
26/09:30am 26.4 26.3 19.6 66 4.4 ESE 19 26 10 14 1016.6 - 0.0
26/09:00am 25.0 25.5 20.0 74 3.2 SE 17 24 9 13 1016.6 1016.5 0.0
26/08:30am 23.3 25.3 19.9 81 2.2 SSE 9 15 5 8 1016.5 - 0.0
26/08:00am 22.1 24.4 19.9 87 1.4 SSE 7 13 4 7 1016.2 - 0.0
26/07:30am 21.1 23.3 19.7 92 0.9 SSE 7 11 4 6 1015.9 - 0.0
26/07:00am 20.7 22.9 19.6 93 0.7 SSE 7 11 4 6 1015.6 - 0.0
26/06:30am 20.7 22.9 19.7 94 0.6 SE 7 11 4 6 1015.4 - 0.0
26/06:00am 20.7 23.1 19.6 93 0.7 SSE 6 7 3 4 1015.3 1015.2 0.0
26/05:30am 21.1 23.3 19.7 92 0.9 SSE 7 9 4 5 1015.1 - 0.0
26/05:00am 21.2 23.5 19.8 92 0.9 SSE 7 9 4 5 1014.9 - 0.0
26/04:30am 21.1 23.6 19.8 92 0.8 SSE 6 7 3 4 1014.8 - 0.0
26/04:00am 21.4 23.9 19.9 91 1.0 SE 6 7 3 4 1015.0 - 0.0
26/03:30am 21.5 24.0 19.9 91 1.0 SE 6 7 3 4 1015.0 - 0.0
26/03:00am 21.7 24.2 19.8 89 1.2 E 6 9 3 5 1015.1 1015.0 0.0
26/02:30am 22.1 24.6 19.9 87 1.4 SE 6 9 3 5 1015.5 - 0.0
26/02:00am 22.4 24.7 19.9 86 1.6 SE 7 11 4 6 1015.8 - 0.0
26/01:30am 22.8 24.8 20.0 84 1.8 ESE 9 11 5 6 1015.9 - 0.0
26/01:00am 23.0 25.4 20.0 83 1.9 ESE 7 11 4 6 1016.2 - 0.0
26/12:30am 23.4 25.8 20.0 81 2.2 ESE 7 17 4 9 1016.3 - 0.0
26/12:00am 23.5 25.5 20.0 81 2.3 ESE 9 15 5 8 1016.5 1016.4 0.0
 
Date/Time
EST
Temp
°C
App
Temp
°C
Dew
Point
Rel
Hum
%
Delta-T
°C
Wind Press
QNH
hPa
Press
MSL
hPa
Rain
since 9 am
mm
Dir
 
Spd
km/h
Gust
km/h
Spd
kts
Gust
kts
25/11:30pm 23.8 25.8 19.9 79 2.5 SE 9 17 5 9 1016.7 - 0.0
25/11:00pm 24.2 25.0 19.8 76 2.8 SE 15 20 8 11 1016.9 - 0.0
25/10:30pm 24.6 25.4 19.8 74 3.1 ESE 15 22 8 12 1017.1 - 0.0
25/10:00pm 25.0 24.8 19.7 72 3.4 ESE 20 28 11 15 1016.9 - 0.0
25/09:30pm 25.1 25.8 19.6 71 3.5 ESE 15 22 8 12 1016.8 - 0.0
25/09:00pm 25.2 26.2 19.5 70 3.7 ESE 13 22 7 12 1016.5 1016.4 0.0
25/08:30pm 25.4 26.8 19.6 70 3.7 ESE 11 15 6 8 1016.2 - 0.0
25/08:00pm 25.9 26.9 19.5 68 4.1 E 13 22 7 12 1015.8 - 0.0
25/07:30pm 26.2 26.8 19.4 66 4.4 E 15 24 8 13 1015.1 - 0.0
25/07:00pm 26.5 26.3 19.4 65 4.6 E 19 26 10 14 1014.7 - 0.0
25/06:30pm 27.2 27.8 19.4 62 5.0 E 15 28 8 15 1014.3 - 0.0

Other Formats:

Comma delimited format used in spreadsheet applications
http://www.bom.gov.au/fwo/IDQ60801/IDQ60801.94170.axf

JavaScript Object Notation format (JSON) in row-major order
http://www.bom.gov.au/fwo/IDQ60801/IDQ60801.94170.json